Time;durP1;ratioP1;P1;durP2;ratioP2;P2;SDS_P1;SDS_P2;PMS_P1;PMS_P2;Temp;Humidity;BMP_temperature;BMP_pressure;BME280_temperature;BME280_humidity;BME280_pressure;Samples;Min_cycle;Max_cycle;Signal;HPM_P1;HPM_P2
2021/11/14 00:02:42;;;;;;;38.40;14.68;;;11.70;94.10;;;;;;6230836;28;20038;-81
2021/11/14 00:05:46;;;;;;;35.78;16.10;;;11.70;94.10;;;;;;6231335;28;20515;-84
2021/11/14 00:08:47;;;;;;;39.33;15.00;;;11.60;94.20;;;;;;6231516;28;20346;-82
2021/11/14 00:11:49;;;;;;;35.35;13.80;;;11.60;94.10;;;;;;6230759;28;20632;-82
2021/11/14 00:14:51;;;;;;;31.35;12.68;;;11.50;94.10;;;;;;6231308;28;20050;-83
2021/11/14 00:17:53;;;;;;;36.40;13.45;;;11.50;94.20;;;;;;6230051;28;20074;-81
2021/11/14 00:20:56;;;;;;;41.72;13.93;;;11.50;94.30;;;;;;6229940;28;20061;-82
2021/11/14 00:23:59;;;;;;;35.30;14.55;;;11.50;94.10;;;;;;6229348;28;20049;-83
2021/11/14 00:27:02;;;;;;;38.08;13.68;;;11.50;94.20;;;;;;6230068;28;20049;-82
2021/11/14 00:30:05;;;;;;;41.25;15.55;;;11.50;94.40;;;;;;6228591;28;20415;-81
2021/11/14 00:33:07;;;;;;;38.38;14.10;;;11.50;94.30;;;;;;6225673;28;20061;-84
2021/11/14 00:36:11;;;;;;;44.83;15.32;;;11.50;94.20;;;;;;6227120;28;20102;-82
2021/11/14 00:39:16;;;;;;;41.72;15.88;;;11.60;94.30;;;;;;6227450;28;20053;-82
2021/11/14 00:42:18;;;;;;;39.17;14.82;;;11.60;94.30;;;;;;6226461;28;20081;-80
2021/11/14 00:45:19;;;;;;;34.08;14.50;;;11.60;94.40;;;;;;6226183;28;20499;-81
2021/11/14 00:48:21;;;;;;;47.15;16.05;;;11.60;94.30;;;;;;6226042;28;20048;-83
2021/11/14 00:51:29;;;;;;;36.78;13.75;;;11.60;94.20;;;;;;6225817;28;20427;-83
2021/11/14 00:54:31;;;;;;;46.63;17.02;;;11.70;94.30;;;;;;6225583;28;20049;-82
2021/11/14 00:57:33;;;;;;;40.67;15.57;;;11.70;94.20;;;;;;6226262;28;20056;-82
2021/11/14 01:00:35;;;;;;;42.85;15.45;;;11.70;94.00;;;;;;6229579;28;20547;-82
2021/11/14 01:03:37;;;;;;;49.55;17.40;;;11.70;94.20;;;;;;6231448;28;20415;-82
2021/11/14 01:06:40;;;;;;;43.90;17.30;;;11.70;94.10;;;;;;6231387;28;20045;-80
2021/11/14 01:09:42;;;;;;;44.70;15.77;;;11.70;93.90;;;;;;6231553;28;20050;-83
2021/11/14 01:12:45;;;;;;;46.45;17.02;;;11.80;94.20;;;;;;6231234;28;20053;-83
2021/11/14 01:15:49;;;;;;;38.60;16.02;;;11.80;94.10;;;;;;6232432;28;20054;-83
2021/11/14 01:18:52;;;;;;;42.05;15.23;;;11.80;94.10;;;;;;6233294;28;20050;-83
2021/11/14 01:21:55;;;;;;;47.50;16.60;;;11.90;94.00;;;;;;6234616;28;20034;-80
2021/11/14 01:24:57;;;;;;;45.25;17.55;;;11.90;94.00;;;;;;6233492;28;20547;-83
2021/11/14 01:27:59;;;;;;;48.33;16.48;;;12.00;93.90;;;;;;6232981;28;20053;-82
2021/11/14 01:31:00;;;;;;;42.88;15.45;;;11.90;93.90;;;;;;6210531;28;20058;-81
2021/11/14 01:34:03;;;;;;;55.45;16.00;;;11.90;94.00;;;;;;6209637;28;20503;-81
2021/11/14 01:37:06;;;;;;;39.03;16.45;;;12.00;93.90;;;;;;6232348;28;20129;-81
2021/11/14 01:40:10;;;;;;;39.63;15.40;;;11.90;93.90;;;;;;6232255;28;20053;-81
2021/11/14 01:43:15;;;;;;;47.55;17.35;;;12.00;93.80;;;;;;6231000;28;20124;-82
2021/11/14 01:46:17;;;;;;;47.03;17.70;;;12.00;93.80;;;;;;6230056;28;20048;-81
2021/11/14 01:49:19;;;;;;;41.00;16.13;;;12.00;93.80;;;;;;6230551;28;20423;-81
2021/11/14 01:52:25;;;;;;;40.42;16.38;;;12.00;93.60;;;;;;6230283;28;20042;-81
2021/11/14 01:55:29;;;;;;;44.72;15.38;;;12.00;93.60;;;;;;6230309;28;20046;-80
2021/11/14 01:58:31;;;;;;;46.03;16.33;;;11.90;93.80;;;;;;6228612;28;20157;-81
2021/11/14 02:01:33;;;;;;;49.28;15.52;;;11.90;93.80;;;;;;6228657;28;20073;-79
2021/11/14 02:04:35;;;;;;;38.20;15.60;;;11.90;93.90;;;;;;6229522;28;20053;-80
2021/11/14 02:07:39;;;;;;;55.53;17.65;;;11.90;93.90;;;;;;6228490;28;20049;-80
2021/11/14 02:10:42;;;;;;;40.80;15.38;;;12.00;93.90;;;;;;6227829;28;20419;-80
2021/11/14 02:13:45;;;;;;;38.00;14.63;;;12.00;93.80;;;;;;6228767;28;20069;-82
2021/11/14 02:16:47;;;;;;;48.05;15.95;;;12.00;93.80;;;;;;6228967;28;20049;-81
2021/11/14 02:19:52;;;;;;;36.00;12.88;;;12.00;93.80;;;;;;6228409;28;20060;-83
2021/11/14 02:22:54;;;;;;;46.90;14.77;;;12.10;93.70;;;;;;6229491;28;20081;-82
2021/11/14 02:25:56;;;;;;;40.25;13.85;;;12.10;93.60;;;;;;6228891;28;20499;-83
2021/11/14 02:28:58;;;;;;;43.83;14.15;;;12.10;93.50;;;;;;6228258;28;20426;-81
2021/11/14 02:32:00;;;;;;;40.20;14.07;;;12.10;93.50;;;;;;6229158;28;20188;-80
2021/11/14 02:35:03;;;;;;;36.83;14.00;;;12.10;93.50;;;;;;6228228;28;20133;-81
2021/11/14 02:38:05;;;;;;;34.10;13.07;;;12.10;93.60;;;;;;6228611;28;20049;-80
2021/11/14 02:41:09;;;;;;;48.10;15.10;;;12.10;93.60;;;;;;6228820;28;20054;-82
2021/11/14 02:44:12;;;;;;;40.80;14.38;;;12.10;93.40;;;;;;6228999;28;20062;-82
2021/11/14 02:47:14;;;;;;;40.47;15.13;;;12.20;93.50;;;;;;6229203;28;20056;-82
2021/11/14 02:50:18;;;;;;;33.78;13.52;;;12.20;93.30;;;;;;6227666;28;20056;-81
2021/11/14 02:53:21;;;;;;;38.33;13.55;;;12.10;93.70;;;;;;6228855;28;20050;-80
2021/11/14 02:56:23;;;;;;;33.95;13.55;;;12.10;93.40;;;;;;6229904;28;20153;-82
2021/11/14 02:59:25;;;;;;;39.05;13.05;;;12.00;93.40;;;;;;6230382;28;20496;-83
2021/11/14 03:02:27;;;;;;;38.10;11.55;;;11.90;93.50;;;;;;6229125;28;20045;-82
2021/11/14 03:05:30;;;;;;;34.80;11.15;;;11.80;93.60;;;;;;6228831;28;20061;-81
2021/11/14 03:08:33;;;;;;;40.63;12.23;;;11.70;93.70;;;;;;6228029;28;20070;-80
2021/11/14 03:11:35;;;;;;;36.60;13.07;;;11.80;93.90;;;;;;6229553;28;20488;-81
2021/11/14 03:14:37;;;;;;;43.03;13.77;;;11.80;93.60;;;;;;6228751;28;20087;-81
2021/11/14 03:17:39;;;;;;;34.45;14.25;;;11.80;93.40;;;;;;6230748;28;20590;-80
2021/11/14 03:20:45;;;;;;;39.40;13.38;;;11.70;93.70;;;;;;6229801;28;20046;-81
2021/11/14 03:23:47;;;;;;;31.83;11.45;;;11.80;93.80;;;;;;6230229;28;20050;-79
2021/11/14 03:26:49;;;;;;;33.92;11.98;;;11.90;93.80;;;;;;6229500;28;20136;-80
2021/11/14 03:29:52;;;;;;;36.28;11.38;;;11.90;93.70;;;;;;6229532;28;20054;-80
2021/11/14 03:32:54;;;;;;;27.73;11.93;;;11.90;93.60;;;;;;6230080;28;20121;-82
2021/11/14 03:35:59;;;;;;;37.28;12.52;;;11.90;93.60;;;;;;6217309;28;20049;-82
2021/11/14 03:39:05;;;;;;;34.90;12.25;;;12.00;93.60;;;;;;6228803;28;20049;-82
2021/11/14 03:42:07;;;;;;;41.17;13.73;;;12.00;93.50;;;;;;6228154;28;20057;-81
2021/11/14 03:45:09;;;;;;;40.63;14.25;;;11.90;93.50;;;;;;6228191;28;20053;-82
2021/11/14 03:48:12;;;;;;;40.22;13.38;;;11.90;93.50;;;;;;6227386;28;20453;-81
2021/11/14 03:51:16;;;;;;;48.55;14.60;;;11.90;93.60;;;;;;6228042;28;20053;-82
2021/11/14 03:54:18;;;;;;;39.10;13.48;;;11.90;93.60;;;;;;6227603;28;20037;-82
2021/11/14 03:57:20;;;;;;;42.47;13.88;;;11.90;93.70;;;;;;6228037;28;20058;-81
2021/11/14 04:00:24;;;;;;;48.35;13.48;;;11.90;93.70;;;;;;6227738;28;20101;-83
2021/11/14 04:03:28;;;;;;;34.65;12.38;;;11.90;93.70;;;;;;6228566;28;20052;-81
2021/11/14 04:06:31;;;;;;;32.50;11.55;;;11.90;93.40;;;;;;6228107;28;20434;-82
2021/11/14 04:09:33;;;;;;;39.65;11.57;;;11.90;93.50;;;;;;6227062;28;20037;-81
2021/11/14 04:12:37;;;;;;;33.45;12.23;;;11.90;93.50;;;;;;6227073;28;20053;-81
2021/11/14 04:15:39;;;;;;;36.47;12.02;;;12.00;93.40;;;;;;6228484;28;20056;-81
2021/11/14 04:18:41;;;;;;;34.63;11.82;;;12.00;93.40;;;;;;6227269;28;20515;-82
2021/11/14 04:21:44;;;;;;;34.20;12.00;;;12.00;93.40;;;;;;6227668;28;20084;-80
2021/11/14 04:24:46;;;;;;;41.38;12.02;;;12.00;93.40;;;;;;6227853;28;20045;-80
2021/11/14 04:27:48;;;;;;;28.40;11.20;;;12.00;93.10;;;;;;6227510;28;20140;-80
2021/11/14 04:30:50;;;;;;;29.08;10.40;;;12.00;93.20;;;;;;6227075;28;20419;-80
2021/11/14 04:33:52;;;;;;;29.85;11.48;;;12.00;93.40;;;;;;6226541;28;20504;-80
2021/11/14 04:36:56;;;;;;;33.30;11.52;;;12.00;93.40;;;;;;6223892;28;20045;-81
2021/11/14 04:39:58;;;;;;;23.75;9.13;;;12.00;93.40;;;;;;6225268;28;20397;-80
2021/11/14 04:43:00;;;;;;;24.02;9.43;;;12.00;93.40;;;;;;6227594;28;20135;-79
2021/11/14 04:46:01;;;;;;;30.95;9.88;;;11.90;93.40;;;;;;6226529;28;20068;-81
2021/11/14 04:49:03;;;;;;;35.40;11.15;;;11.90;93.20;;;;;;6226941;28;20048;-82
2021/11/14 04:52:07;;;;;;;25.17;9.80;;;11.80;93.30;;;;;;6227534;28;20129;-82
2021/11/14 04:55:10;;;;;;;23.55;9.90;;;11.70;93.50;;;;;;6227382;28;20050;-82
2021/11/14 04:58:13;;;;;;;18.25;8.90;;;11.60;93.70;;;;;;6227295;28;20506;-81
2021/11/14 05:01:15;;;;;;;20.67;9.30;;;11.70;93.70;;;;;;6226629;28;20050;-80
2021/11/14 05:04:17;;;;;;;20.92;9.15;;;11.70;93.50;;;;;;6225951;28;20416;-81
2021/11/14 05:07:20;;;;;;;21.45;9.27;;;11.60;93.50;;;;;;6227036;28;20559;-81
2021/11/14 05:10:21;;;;;;;38.10;11.25;;;11.60;93.70;;;;;;6225678;28;20657;-82
2021/11/14 05:13:23;;;;;;;28.95;9.35;;;11.60;93.70;;;;;;6226509;28;20042;-83
2021/11/14 05:16:25;;;;;;;17.75;8.23;;;11.60;93.70;;;;;;6227672;28;20045;-84
2021/11/14 05:19:27;;;;;;;23.90;9.27;;;11.70;93.70;;;;;;6227299;28;20502;-85
2021/11/14 05:22:30;;;;;;;19.70;8.60;;;11.70;93.60;;;;;;6227216;28;20423;-84
2021/11/14 05:25:32;;;;;;;19.98;8.93;;;11.70;93.60;;;;;;6229262;28;20050;-84
2021/11/14 05:28:34;;;;;;;27.15;10.73;;;11.70;93.60;;;;;;6226273;28;20530;-84
2021/11/14 05:31:36;;;;;;;20.13;10.38;;;11.60;93.60;;;;;;6227040;28;20106;-83
2021/11/14 05:34:39;;;;;;;18.35;10.38;;;11.60;93.60;;;;;;6226357;28;20162;-83
2021/11/14 05:37:42;;;;;;;18.65;10.07;;;11.60;93.40;;;;;;6225990;28;20415;-85
2021/11/14 05:40:44;;;;;;;20.92;9.63;;;11.50;93.50;;;;;;6225419;28;20042;-85
2021/11/14 05:43:46;;;;;;;23.00;10.40;;;11.40;93.70;;;;;;6225915;28;20049;-84
2021/11/14 05:46:48;;;;;;;21.60;9.82;;;11.40;93.80;;;;;;6231243;28;20533;-83
2021/11/14 05:49:49;;;;;;;22.45;10.82;;;11.30;93.70;;;;;;6231039;28;20046;-82
2021/11/14 05:52:53;;;;;;;19.95;10.05;;;11.30;93.80;;;;;;6230529;28;20566;-84
2021/11/14 05:55:54;;;;;;;23.10;11.10;;;11.20;94.00;;;;;;6230561;28;20053;-83
2021/11/14 05:59:03;;;;;;;23.98;11.35;;;11.10;94.30;;;;;;6230445;28;20042;-83
2021/11/14 06:02:09;;;;;;;26.70;11.20;;;11.00;94.50;;;;;;6230867;28;20088;-84
2021/11/14 06:05:15;;;;;;;22.20;10.98;;;10.90;94.80;;;;;;6230634;28;20054;-82
2021/11/14 06:08:21;;;;;;;22.17;11.95;;;10.90;95.00;;;;;;6230385;28;20496;-81
2021/11/14 06:11:24;;;;;;;27.63;13.45;;;10.80;95.20;;;;;;6231330;28;20050;-82
2021/11/14 06:14:26;;;;;;;33.90;11.85;;;11.00;95.30;;;;;;6230745;28;20076;-82
2021/11/14 06:17:28;;;;;;;27.67;12.50;;;11.00;95.10;;;;;;6231167;28;20108;-82
2021/11/14 06:20:29;;;;;;;25.58;13.02;;;11.00;94.90;;;;;;6230803;28;20125;-81
2021/11/14 06:23:33;;;;;;;27.45;14.20;;;10.90;94.90;;;;;;6229029;28;20038;-82
2021/11/14 06:26:34;;;;;;;30.88;14.32;;;10.80;94.90;;;;;;6229599;28;20132;-83
2021/11/14 06:29:36;;;;;;;31.15;14.70;;;10.80;94.80;;;;;;6229380;28;20038;-83
2021/11/14 06:32:38;;;;;;;33.25;14.63;;;10.70;94.90;;;;;;6228846;28;20057;-83
2021/11/14 06:35:40;;;;;;;37.05;15.77;;;10.70;95.00;;;;;;6229821;28;20462;-83
2021/11/14 06:38:43;;;;;;;36.28;16.58;;;10.80;95.00;;;;;;6222331;28;20504;-82
2021/11/14 06:41:46;;;;;;;30.55;14.45;;;10.70;94.90;;;;;;6224508;28;20188;-82
2021/11/14 06:44:47;;;;;;;36.33;17.08;;;10.70;94.90;;;;;;6229604;28;20060;-81
2021/11/14 06:47:49;;;;;;;32.80;16.85;;;10.50;94.90;;;;;;6229238;28;20496;-83
2021/11/14 06:50:51;;;;;;;34.10;17.50;;;10.50;94.80;;;;;;6229548;28;20045;-82
2021/11/14 06:53:54;;;;;;;36.03;17.10;;;10.50;95.00;;;;;;6230001;28;20065;-84
2021/11/14 06:56:56;;;;;;;38.53;17.83;;;10.40;95.20;;;;;;6230046;28;20511;-82
2021/11/14 06:59:58;;;;;;;35.13;18.50;;;10.40;95.00;;;;;;6230367;28;20068;-81
2021/11/14 07:03:00;;;;;;;39.55;17.67;;;10.30;94.90;;;;;;6233556;28;20061;-81
2021/11/14 07:06:02;;;;;;;36.60;17.77;;;10.40;95.00;;;;;;6230829;28;20125;-83
2021/11/14 07:09:07;;;;;;;42.47;19.75;;;10.40;95.10;;;;;;6230357;28;20070;-83
2021/11/14 07:12:09;;;;;;;42.83;18.08;;;10.40;95.10;;;;;;6229805;28;20048;-83
2021/11/14 07:15:13;;;;;;;43.13;19.02;;;10.40;95.20;;;;;;6237130;28;20104;-82
2021/11/14 07:18:15;;;;;;;39.67;18.52;;;10.50;95.10;;;;;;6231737;28;20082;-80
2021/11/14 07:21:17;;;;;;;34.92;18.00;;;10.50;95.10;;;;;;6229550;28;20053;-82
2021/11/14 07:24:20;;;;;;;37.95;19.05;;;10.70;95.20;;;;;;6230040;28;20049;-83
2021/11/14 07:27:22;;;;;;;39.67;18.13;;;10.50;94.80;;;;;;6230243;28;20159;-83
2021/11/14 07:30:26;;;;;;;39.95;18.88;;;10.60;94.70;;;;;;6229657;28;20050;-82
2021/11/14 07:33:28;;;;;;;47.80;20.05;;;10.50;94.70;;;;;;6229115;28;20066;-81
2021/11/14 07:36:29;;;;;;;35.47;19.10;;;10.50;94.70;;;;;;6228653;28;20038;-83
2021/11/14 07:39:33;;;;;;;42.03;21.00;;;10.60;94.70;;;;;;6228479;28;20113;-83
2021/11/14 07:42:36;;;;;;;45.63;18.63;;;10.70;94.70;;;;;;6228298;28;20176;-82
2021/11/14 07:45:38;;;;;;;36.35;20.23;;;10.70;94.60;;;;;;6230083;28;20088;-83
2021/11/14 07:48:39;;;;;;;48.75;21.45;;;10.70;94.70;;;;;;6229175;28;20539;-82
2021/11/14 07:51:41;;;;;;;50.53;21.13;;;10.80;94.70;;;;;;6229785;28;20046;-82
2021/11/14 07:54:44;;;;;;;42.47;19.95;;;11.00;94.80;;;;;;6225557;28;20133;-79
2021/11/14 07:57:46;;;;;;;52.58;22.42;;;11.20;94.60;;;;;;6207359;28;20050;-82
2021/11/14 08:00:49;;;;;;;46.72;21.75;;;11.30;94.40;;;;;;6203725;28;20058;-82
2021/11/14 08:03:52;;;;;;;48.95;20.85;;;11.20;93.90;;;;;;6203942;28;20046;-81
2021/11/14 08:06:56;;;;;;;50.25;22.50;;;11.00;94.10;;;;;;6204309;28;20559;-84
2021/11/14 08:09:59;;;;;;;48.10;21.15;;;11.20;94.00;;;;;;6203453;28;20136;-83
2021/11/14 08:13:01;;;;;;;46.80;20.25;;;11.10;93.90;;;;;;6203749;28;20126;-82
2021/11/14 08:16:03;;;;;;;40.17;20.27;;;11.00;93.70;;;;;;6203758;28;20054;-84
2021/11/14 08:19:05;;;;;;;46.80;20.48;;;11.10;93.90;;;;;;6204106;28;20089;-84
2021/11/14 08:22:07;;;;;;;48.13;22.02;;;11.30;94.30;;;;;;6203592;28;20054;-84
2021/11/14 08:25:11;;;;;;;45.47;20.13;;;11.80;94.50;;;;;;6203742;28;20108;-83
2021/11/14 08:28:14;;;;;;;43.60;18.60;;;12.00;93.50;;;;;;6204659;28;20508;-84
2021/11/14 08:31:20;;;;;;;36.15;17.45;;;12.10;93.00;;;;;;6203941;28;20061;-82
2021/11/14 08:34:22;;;;;;;34.95;17.67;;;12.00;92.80;;;;;;6203707;28;20039;-81
2021/11/14 08:37:24;;;;;;;37.95;17.35;;;11.90;92.80;;;;;;6202069;28;20540;-83
2021/11/14 08:40:29;;;;;;;31.15;14.82;;;11.90;93.00;;;;;;6210868;28;20048;-83
2021/11/14 08:43:32;;;;;;;33.67;16.20;;;12.00;93.20;;;;;;6227561;28;20060;-82
2021/11/14 08:46:37;;;;;;;33.90;16.27;;;12.20;93.00;;;;;;6227769;28;20129;-83
2021/11/14 08:49:39;;;;;;;34.33;15.43;;;12.20;93.00;;;;;;6227845;28;20393;-82
2021/11/14 08:52:45;;;;;;;30.73;14.18;;;12.30;92.70;;;;;;6202444;28;20070;-81
2021/11/14 08:55:48;;;;;;;25.73;13.68;;;12.30;92.90;;;;;;6230429;28;20045;-81
2021/11/14 08:58:50;;;;;;;23.70;13.20;;;12.50;92.60;;;;;;6204617;28;20346;-82
2021/11/14 09:01:51;;;;;;;22.38;11.88;;;12.50;92.30;;;;;;6211100;28;20515;-84
2021/11/14 09:04:53;;;;;;;20.23;10.18;;;12.60;92.70;;;;;;6210237;28;20197;-80
2021/11/14 09:07:57;;;;;;;25.05;12.90;;;12.50;92.20;;;;;;6204202;28;20108;-82
2021/11/14 09:11:00;;;;;;;26.02;12.32;;;12.40;92.30;;;;;;6203958;28;20432;-83
2021/11/14 09:14:02;;;;;;;24.10;13.45;;;12.30;92.50;;;;;;6219164;28;20388;-85
2021/11/14 09:17:04;;;;;;;27.85;13.45;;;12.30;92.20;;;;;;6228223;28;20069;-82
2021/11/14 09:20:07;;;;;;;19.15;9.63;;;12.30;92.50;;;;;;6229682;28;20056;-82
2021/11/14 09:23:09;;;;;;;19.02;12.50;;;12.40;92.60;;;;;;6233510;28;20141;-82
2021/11/14 09:26:12;;;;;;;25.58;13.02;;;12.40;92.20;;;;;;6229555;28;20112;-82
2021/11/14 09:29:14;;;;;;;26.40;13.80;;;12.40;92.40;;;;;;6228531;28;20060;-82
2021/11/14 09:32:16;;;;;;;23.15;13.40;;;12.40;92.00;;;;;;6232448;28;20037;-81
2021/11/14 09:35:18;;;;;;;25.20;13.02;;;12.30;92.10;;;;;;6233610;28;20046;-82
2021/11/14 09:38:20;;;;;;;25.83;13.90;;;12.40;92.40;;;;;;6232688;28;20058;-82
2021/11/14 09:41:24;;;;;;;25.02;14.23;;;12.60;92.80;;;;;;6231895;28;20052;-79
2021/11/14 09:44:26;;;;;;;29.92;14.82;;;12.80;92.80;;;;;;6229155;28;20048;-82
2021/11/14 09:47:28;;;;;;;24.10;12.70;;;13.00;92.20;;;;;;6233657;28;20500;-81
2021/11/14 09:50:30;;;;;;;23.73;12.15;;;13.00;91.60;;;;;;6232257;28;20049;-82
2021/11/14 09:53:36;;;;;;;27.85;12.02;;;12.90;91.90;;;;;;6231652;28;20050;-82
2021/11/14 09:56:39;;;;;;;26.60;13.10;;;13.00;92.30;;;;;;6224863;28;20411;-83
2021/11/14 09:59:41;;;;;;;21.80;12.35;;;13.00;91.20;;;;;;6234929;28;20053;-80
2021/11/14 10:02:44;;;;;;;21.38;11.43;;;13.00;92.20;;;;;;6237198;28;20058;-82
2021/11/14 10:05:48;;;;;;;22.77;11.73;;;13.00;91.90;;;;;;6237332;28;20124;-80
2021/11/14 10:08:50;;;;;;;21.50;11.93;;;13.20;91.90;;;;;;6235895;28;20053;-81
2021/11/14 10:11:53;;;;;;;21.63;11.60;;;13.40;92.20;;;;;;6234700;28;20108;-82
2021/11/14 10:15:08;;;;;;;24.75;12.65;;;13.60;91.60;;;;;;6235657;28;20199;-79
2021/11/14 10:18:12;;;;;;;18.92;10.85;;;13.80;91.80;;;;;;6234357;28;20082;-82
2021/11/14 10:21:14;;;;;;;17.92;10.82;;;13.90;90.90;;;;;;6235283;28;20081;-81
2021/11/14 10:24:16;;;;;;;17.60;10.82;;;13.90;91.00;;;;;;6235215;28;20052;-81
2021/11/14 10:27:20;;;;;;;19.58;10.13;;;14.10;90.80;;;;;;6228065;28;20411;-82
2021/11/14 10:30:25;;;;;;;18.30;11.27;;;14.30;90.50;;;;;;6235308;28;20042;-82
2021/11/14 10:33:27;;;;;;;18.42;10.57;;;14.40;90.00;;;;;;6234356;28;20068;-82
2021/11/14 10:36:31;;;;;;;19.83;10.68;;;14.30;90.00;;;;;;6238308;28;20116;-81
2021/11/14 10:39:39;;;;;;;21.27;11.52;;;14.00;89.30;;;;;;6236295;28;20135;-82
2021/11/14 10:42:47;;;;;;;18.15;10.50;;;13.70;89.10;;;;;;6231885;28;20061;-81
2021/11/14 10:45:49;;;;;;;18.83;10.27;;;13.60;90.10;;;;;;6234465;28;20049;-82
2021/11/14 10:48:51;;;;;;;14.93;9.35;;;13.60;90.40;;;;;;6235904;28;20073;-80
2021/11/14 10:51:57;;;;;;;17.63;10.73;;;13.70;90.50;;;;;;6234506;28;20096;-80
2021/11/14 10:55:02;;;;;;;16.95;9.88;;;13.60;90.10;;;;;;6234350;28;20060;-80
2021/11/14 10:58:05;;;;;;;15.05;9.55;;;13.50;90.20;;;;;;6218335;28;20042;-78
2021/11/14 11:01:09;;;;;;;19.90;11.18;;;13.50;90.30;;;;;;6213601;28;20042;-83
2021/11/14 11:04:11;;;;;;;19.63;11.77;;;13.60;90.90;;;;;;6219537;28;20065;-82
2021/11/14 11:07:13;;;;;;;19.02;11.63;;;13.60;90.10;;;;;;6225666;28;20073;-83
2021/11/14 11:10:15;;;;;;;20.05;10.85;;;13.40;90.00;;;;;;6222308;28;20411;-79
2021/11/14 11:13:31;;;;;;;17.90;10.57;;;13.50;90.80;;;;;;6224329;28;20587;-80
2021/11/14 11:16:33;;;;;;;17.02;10.23;;;13.50;90.40;;;;;;6221189;28;20037;-80
2021/11/14 11:19:35;;;;;;;18.98;9.98;;;13.50;90.00;;;;;;6220317;28;20094;-80
2021/11/14 11:22:47;;;;;;;17.48;10.15;;;13.70;90.60;;;;;;6220463;28;20117;-80
2021/11/14 11:25:50;;;;;;;20.35;11.02;;;13.60;89.70;;;;;;6213188;28;20038;-79
2021/11/14 11:28:53;;;;;;;15.45;9.15;;;13.40;89.30;;;;;;6227289;28;20046;-79
2021/11/14 11:31:56;;;;;;;20.10;9.55;;;13.40;90.00;;;;;;6231990;28;20141;-80
2021/11/14 11:34:59;;;;;;;13.85;8.48;;;13.30;89.70;;;;;;6226274;28;20050;-79
2021/11/14 11:38:02;;;;;;;19.00;9.75;;;13.20;90.00;;;;;;6219474;28;20050;-78
2021/11/14 11:41:05;;;;;;;20.52;11.43;;;12.90;90.00;;;;;;6213922;28;20476;-79
2021/11/14 11:44:09;;;;;;;25.93;11.53;;;12.80;90.40;;;;;;6217900;28;20048;-79
2021/11/14 11:47:12;;;;;;;21.90;11.07;;;12.70;90.60;;;;;;6214276;28;20050;-80
2021/11/14 11:50:14;;;;;;;18.40;9.52;;;12.80;90.30;;;;;;6208705;28;20058;-79
2021/11/14 11:53:24;;;;;;;19.55;10.82;;;12.80;90.30;;;;;;6226232;28;20129;-80
2021/11/14 11:56:36;;;;;;;21.77;10.98;;;13.00;90.50;;;;;;6214518;28;20491;-77
2021/11/14 11:59:41;;;;;;;23.10;9.95;;;13.00;90.10;;;;;;6208711;28;20436;-80
2021/11/14 12:02:44;;;;;;;15.73;8.98;;;13.10;90.20;;;;;;6209107;28;20057;-81
2021/11/14 12:05:47;;;;;;;19.58;9.10;;;13.20;90.00;;;;;;6207691;28;20129;-79
2021/11/14 12:08:51;;;;;;;22.20;10.65;;;13.10;89.40;;;;;;6207576;28;20046;-79
2021/11/14 12:11:53;;;;;;;20.73;12.13;;;13.10;89.60;;;;;;6206060;28;20522;-79
2021/11/14 12:15:13;;;;;;;20.88;11.68;;;13.20;89.60;;;;;;6206569;28;20073;-80
2021/11/14 12:18:16;;;;;;;28.65;12.27;;;13.30;89.80;;;;;;6206686;28;20086;-80
2021/11/14 12:21:21;;;;;;;21.75;12.52;;;13.30;89.30;;;;;;6205714;28;20052;-80
2021/11/14 12:24:23;;;;;;;27.85;12.65;;;13.20;88.50;;;;;;6207433;28;20058;-81
2021/11/14 12:27:27;;;;;;;15.85;8.20;;;13.10;89.00;;;;;;6223944;28;20139;-80
2021/11/14 12:30:31;;;;;;;18.23;10.02;;;12.90;89.00;;;;;;6230256;28;20128;-79
2021/11/14 12:33:38;;;;;;;24.80;10.60;;;12.80;89.40;;;;;;6230956;28;20046;-81
2021/11/14 12:36:43;;;;;;;28.00;12.87;;;12.70;89.20;;;;;;6229669;28;20107;-81
2021/11/14 12:39:45;;;;;;;25.35;13.80;;;12.60;89.40;;;;;;6231153;28;20128;-80
2021/11/14 12:42:47;;;;;;;29.52;13.75;;;12.70;89.10;;;;;;6230430;28;20052;-79
2021/11/14 12:45:55;;;;;;;26.58;12.98;;;12.70;89.10;;;;;;6220245;28;20507;-80
2021/11/14 12:48:57;;;;;;;24.10;12.52;;;12.90;89.80;;;;;;6229874;28;20423;-79
2021/11/14 12:51:58;;;;;;;26.73;12.63;;;12.90;88.90;;;;;;6230983;28;20504;-81
2021/11/14 12:55:07;;;;;;;24.55;14.30;;;13.00;88.60;;;;;;6224082;28;20046;-80
2021/11/14 12:58:11;;;;;;;27.42;13.45;;;13.00;88.30;;;;;;6224551;28;20136;-80
2021/11/14 13:01:22;;;;;;;24.55;11.20;;;12.90;87.80;;;;;;6235610;28;20118;-80
2021/11/14 13:04:26;;;;;;;25.13;12.07;;;12.60;88.00;;;;;;6235705;28;20045;-79
2021/11/14 13:07:31;;;;;;;27.98;13.82;;;12.50;88.60;;;;;;6232336;28;20110;-80
2021/11/14 13:10:32;;;;;;;26.63;12.80;;;12.40;88.80;;;;;;6233131;28;20071;-82
2021/11/14 13:13:38;;;;;;;28.00;12.68;;;12.40;88.80;;;;;;6232935;28;20128;-82
2021/11/14 13:16:44;;;;;;;30.05;13.30;;;12.30;88.50;;;;;;6231975;28;20034;-82
2021/11/14 13:19:48;;;;;;;27.25;12.18;;;12.40;88.60;;;;;;6231486;28;20077;-81
2021/11/14 13:22:54;;;;;;;24.52;12.15;;;12.30;88.40;;;;;;6233879;28;20065;-81
2021/11/14 13:26:03;;;;;;;29.45;13.88;;;12.30;88.70;;;;;;6226861;28;20057;-79
2021/11/14 13:29:08;;;;;;;30.05;13.23;;;12.30;88.30;;;;;;6225474;28;20420;-82
2021/11/14 13:32:13;;;;;;;29.80;12.95;;;12.30;88.20;;;;;;6233552;28;20057;-80
2021/11/14 13:35:16;;;;;;;25.00;12.55;;;12.30;88.20;;;;;;6234086;28;20440;-82
2021/11/14 13:38:18;;;;;;;31.20;15.05;;;12.30;88.20;;;;;;6231121;28;20483;-80
2021/11/14 13:41:21;;;;;;;29.25;13.30;;;12.20;88.40;;;;;;6230796;28;20048;-80
2021/11/14 13:44:31;;;;;;;33.30;15.77;;;12.20;88.40;;;;;;6234243;28;20089;-84
2021/11/14 13:47:39;;;;;;;33.60;13.93;;;12.10;89.00;;;;;;6236758;28;20066;-80
2021/11/14 13:50:46;;;;;;;25.90;12.45;;;12.20;88.70;;;;;;6235179;28;20057;-82
2021/11/14 13:53:48;;;;;;;27.27;13.88;;;12.30;88.60;;;;;;6234693;28;20088;-80
2021/11/14 13:56:49;;;;;;;31.27;13.30;;;12.30;89.40;;;;;;6224462;28;20042;-81
2021/11/14 13:59:52;;;;;;;34.65;15.18;;;12.50;89.10;;;;;;6211283;28;20046;-81
2021/11/14 14:02:55;;;;;;;31.27;13.43;;;12.50;88.10;;;;;;6210165;28;20109;-79
2021/11/14 14:05:58;;;;;;;29.05;13.07;;;12.60;90.00;;;;;;6206981;28;20544;-79
2021/11/14 14:09:00;;;;;;;27.13;13.68;;;12.70;89.70;;;;;;6219489;28;20621;-81
2021/11/14 14:12:02;;;;;;;24.05;12.13;;;12.90;88.10;;;;;;6236083;28;20151;-81
2021/11/14 14:15:06;;;;;;;28.77;11.38;;;12.90;88.00;;;;;;6238360;28;20514;-83
2021/11/14 14:18:13;;;;;;;30.48;13.23;;;12.90;87.00;;;;;;6238539;28;20572;-81
2021/11/14 14:21:16;;;;;;;30.35;12.77;;;12.90;88.40;;;;;;6237650;28;20132;-83
2021/11/14 14:24:18;;;;;;;26.23;11.70;;;13.00;88.40;;;;;;6224305;22;20070;-84
2021/11/14 14:27:21;;;;;;;21.27;10.70;;;13.10;87.90;;;;;;6227569;28;20045;-83
2021/11/14 14:30:23;;;;;;;28.38;12.60;;;13.10;88.20;;;;;;6233356;28;20141;-81
2021/11/14 14:33:28;;;;;;;26.35;11.68;;;13.10;87.00;;;;;;6203522;28;20054;-81
2021/11/14 14:36:34;;;;;;;21.92;11.13;;;13.00;86.20;;;;;;6191815;28;20057;-83
2021/11/14 14:39:40;;;;;;;20.60;10.60;;;12.80;86.90;;;;;;6195702;28;20546;-84
2021/11/14 14:42:53;;;;;;;22.13;10.75;;;12.80;87.40;;;;;;6187216;28;20567;-78
2021/11/14 14:45:57;;;;;;;21.30;10.05;;;12.70;87.30;;;;;;6189657;28;20050;-81
2021/11/14 14:49:11;;;;;;;22.02;9.98;;;12.80;87.90;;;;;;6200472;28;20053;-81
2021/11/14 14:52:16;;;;;;;25.67;11.43;;;12.90;88.00;;;;;;6209450;28;20046;-80
2021/11/14 14:55:18;;;;;;;19.90;9.73;;;12.90;88.20;;;;;;6177932;28;20125;-81
2021/11/14 14:58:20;;;;;;;21.83;10.68;;;12.90;86.80;;;;;;6205490;28;20042;-79
2021/11/14 15:01:32;;;;;;;22.13;10.40;;;12.80;87.00;;;;;;6213903;28;20129;-79
2021/11/14 15:04:39;;;;;;;21.45;11.00;;;12.80;87.60;;;;;;6182297;28;20047;-81
2021/11/14 15:07:40;;;;;;;25.77;10.95;;;12.80;87.40;;;;;;6164614;28;20051;-81
2021/11/14 15:10:47;;;;;;;21.98;10.80;;;12.70;88.00;;;;;;6164185;28;20126;-81
2021/11/14 15:13:51;;;;;;;21.88;10.77;;;12.70;87.50;;;;;;6164955;28;20043;-81
2021/11/14 15:16:53;;;;;;;19.40;10.25;;;12.70;88.50;;;;;;6163961;28;20067;-79
2021/11/14 15:19:58;;;;;;;25.95;14.07;;;12.70;87.90;;;;;;6162836;28;20123;-81
2021/11/14 15:23:03;;;;;;;26.13;16.13;;;12.60;87.90;;;;;;6162838;28;20137;-81
2021/11/14 15:26:06;;;;;;;18.05;10.30;;;12.70;88.90;;;;;;6185088;28;20052;-82
2021/11/14 15:29:09;;;;;;;20.40;10.05;;;12.70;88.30;;;;;;6205366;28;20162;-79
2021/11/14 15:32:11;;;;;;;23.73;9.75;;;12.70;89.10;;;;;;6209740;28;20056;-81